Time;durP1;ratioP1;P1;durP2;ratioP2;P2;SDS_P1;SDS_P2;PMS_P1;PMS_P2;Temp;Humidity;BMP_temperature;BMP_pressure;BME280_temperature;BME280_humidity;BME280_pressure;Samples;Min_cycle;Max_cycle;Signal;HPM_P1;HPM_P2
2022/11/12 00:01:30;;;;;;;8.20;5.70;;;;;;;5.93;85.76;102639.63;7396554;19;20018;-72
2022/11/12 00:03:58;;;;;;;11.30;5.60;;;;;;;5.94;85.92;102645.69;7395160;19;20082;-72
2022/11/12 00:06:29;;;;;;;8.88;5.55;;;;;;;5.91;85.64;102646.50;7396565;19;20414;-72
2022/11/12 00:08:58;;;;;;;8.35;5.30;;;;;;;5.90;85.84;102643.84;7394612;19;20434;-72
2022/11/12 00:11:26;;;;;;;8.23;5.57;;;;;;;5.89;86.03;102648.19;7396783;19;20026;-72
2022/11/12 00:13:55;;;;;;;9.73;5.05;;;;;;;5.88;85.79;102646.41;7394383;19;20485;-72
2022/11/12 00:16:23;;;;;;;11.52;5.35;;;;;;;5.84;86.12;102640.22;7395598;19;20099;-72
2022/11/12 00:18:52;;;;;;;11.57;5.20;;;;;;;5.84;86.13;102644.56;7396402;19;20014;-72
2022/11/12 00:21:20;;;;;;;8.23;5.80;;;;;;;5.84;86.12;102648.06;7394071;19;20162;-71
2022/11/12 00:23:51;;;;;;;7.80;5.40;;;;;;;5.83;86.11;102645.41;7396221;19;20019;-71
2022/11/12 00:26:20;;;;;;;7.57;5.55;;;;;;;5.83;86.43;102642.81;7394861;19;20022;-71
2022/11/12 00:28:48;;;;;;;9.05;5.90;;;;;;;5.80;86.34;102635.78;7394379;19;20018;-71
2022/11/12 00:31:17;;;;;;;7.90;5.80;;;;;;;5.79;86.21;102635.75;7395321;19;20031;-71
2022/11/12 00:33:45;;;;;;;10.02;5.65;;;;;;;5.79;86.51;102640.97;7394997;19;20022;-71
2022/11/12 00:36:14;;;;;;;7.63;5.68;;;;;;;5.80;86.43;102645.31;7394471;19;20011;-71
2022/11/12 00:38:43;;;;;;;9.57;5.60;;;;;;;5.77;86.32;102634.81;7393546;19;20023;-71
2022/11/12 00:41:14;;;;;;;10.05;6.20;;;;;;;5.74;86.42;102642.53;7392922;19;20019;-71
2022/11/12 00:43:42;;;;;;;13.48;5.95;;;;;;;5.65;86.95;102625.81;7393200;19;20019;-71
2022/11/12 00:46:11;;;;;;;8.35;5.22;;;;;;;5.70;86.64;102629.41;7394084;19;20027;-71
2022/11/12 00:48:39;;;;;;;9.48;5.97;;;;;;;5.69;86.78;102632.88;7393537;19;20074;-71
2022/11/12 00:51:08;;;;;;;10.68;6.30;;;;;;;5.69;86.81;102629.38;7393300;19;20041;-71
2022/11/12 00:53:36;;;;;;;9.65;5.72;;;;;;;5.66;86.79;102631.88;7393265;19;20023;-70
2022/11/12 00:56:06;;;;;;;10.90;6.38;;;;;;;5.68;86.68;102643.25;7393422;19;20039;-72
2022/11/12 00:58:38;;;;;;;10.18;5.88;;;;;;;5.65;86.61;102637.94;7394563;19;20027;-72
2022/11/12 01:01:08;;;;;;;9.95;6.57;;;;;;;5.63;86.79;102637.88;7393622;19;20529;-72
2022/11/12 01:03:38;;;;;;;11.80;7.05;;;;;;;5.61;87.08;102636.06;7394597;19;20480;-71
2022/11/12 01:06:07;;;;;;;11.15;6.88;;;;;;;5.51;86.82;102614.09;7392890;19;20014;-72
2022/11/12 01:08:36;;;;;;;9.57;6.22;;;;;;;5.58;86.80;102634.28;7393200;19;20018;-72
2022/11/12 01:11:10;;;;;;;10.63;7.57;;;;;;;5.59;86.68;102640.38;7393247;19;20087;-72
2022/11/12 01:13:43;;;;;;;14.05;6.60;;;;;;;5.56;86.70;102638.56;7395000;19;20075;-72
2022/11/12 01:16:14;;;;;;;9.23;6.67;;;;;;;5.53;87.12;102635.84;7399170;19;20035;-72
2022/11/12 01:18:43;;;;;;;15.88;7.20;;;;;;;5.47;86.91;102623.56;7399384;19;20410;-72
2022/11/12 01:21:12;;;;;;;14.23;6.68;;;;;;;5.45;86.99;102629.56;7399577;19;20031;-72
2022/11/12 01:23:43;;;;;;;13.23;7.05;;;;;;;5.45;86.98;102629.56;7399144;19;20078;-72
2022/11/12 01:26:14;;;;;;;9.95;6.50;;;;;;;5.42;86.90;102626.84;7399460;19;20023;-72
2022/11/12 01:28:45;;;;;;;9.35;7.07;;;;;;;5.37;87.10;102627.59;7402646;19;20074;-72
2022/11/12 01:31:16;;;;;;;11.10;7.00;;;;;;;5.35;87.30;102628.38;7399713;19;20032;-72
2022/11/12 01:33:47;;;;;;;10.38;7.55;;;;;;;5.33;87.60;102630.06;7401640;19;20014;-72
2022/11/12 01:36:17;;;;;;;12.00;7.20;;;;;;;5.30;87.57;102632.56;7399245;19;20028;-72
2022/11/12 01:38:46;;;;;;;12.70;6.95;;;;;;;5.27;87.44;102632.47;7399794;19;20510;-72
2022/11/12 01:41:17;;;;;;;10.18;7.38;;;;;;;5.24;87.69;102632.38;7398560;19;20031;-72
2022/11/12 01:43:48;;;;;;;8.77;7.15;;;;;;;5.21;87.66;102627.97;7401851;19;20031;-72
2022/11/12 01:46:22;;;;;;;11.05;7.13;;;;;;;5.17;87.94;102632.19;7399025;19;20018;-72
2022/11/12 01:48:55;;;;;;;10.88;7.05;;;;;;;5.15;88.07;102630.38;7398933;19;20031;-72
2022/11/12 01:51:26;;;;;;;14.15;6.93;;;;;;;5.13;88.00;102634.66;7399213;19;20077;-72
2022/11/12 01:54:00;;;;;;;10.48;6.93;;;;;;;5.12;87.96;102632.88;7400212;19;20015;-72
2022/11/12 01:56:30;;;;;;;13.82;7.55;;;;;;;5.11;87.93;102638.94;7401549;19;20087;-72
2022/11/12 01:59:05;;;;;;;11.15;7.25;;;;;;;5.10;88.04;102640.63;7401431;19;20027;-72
2022/11/12 02:01:33;;;;;;;8.98;7.03;;;;;;;4.99;88.14;102616.91;7400656;19;20501;-72
2022/11/12 02:04:02;;;;;;;9.02;7.18;;;;;;;5.06;88.04;102642.25;7400690;19;20078;-72
2022/11/12 02:06:31;;;;;;;10.43;7.05;;;;;;;5.00;88.30;102635.97;7398474;19;20027;-72
2022/11/12 02:09:01;;;;;;;11.35;7.05;;;;;;;5.02;88.17;102639.53;7400423;19;20101;-72
2022/11/12 02:11:29;;;;;;;10.52;7.22;;;;;;;4.99;88.12;102645.50;7400768;19;20060;-71
2022/11/12 02:14:11;;;;;;;16.27;7.45;;;;;;;4.95;88.30;102648.84;7390889;19;20011;-66
2022/11/12 02:16:42;;;;;;;10.65;6.82;;;;;;;4.91;88.09;102649.56;7400738;19;20074;-67
2022/11/12 02:19:12;;;;;;;11.15;7.30;;;;;;;4.85;88.41;102645.06;7397790;19;20070;-67
2022/11/12 02:21:44;;;;;;;10.50;6.78;;;;;;;4.82;88.36;102646.69;7397296;19;20070;-68
2022/11/12 02:24:34;;;;;;;10.13;7.55;;;;;;;4.76;88.49;102651.69;7397779;19;20102;-67
2022/11/12 02:27:02;;;;;;;11.20;7.40;;;;;;;4.71;88.39;102657.63;7398910;19;20362;-67
2022/11/12 02:29:31;;;;;;;9.88;7.35;;;;;;;4.69;88.30;102661.00;7399934;19;20031;-68
2022/11/12 02:31:59;;;;;;;12.15;7.57;;;;;;;4.66;88.19;102661.78;7397092;19;20471;-67
2022/11/12 02:34:28;;;;;;;13.50;7.75;;;;;;;4.64;88.17;102667.75;7397759;19;20035;-68
2022/11/12 02:36:59;;;;;;;12.43;7.72;;;;;;;4.63;88.43;102666.88;7399548;19;20057;-68
2022/11/12 02:39:27;;;;;;;15.93;7.97;;;;;;;4.62;88.31;102662.50;7399287;19;20549;-67
2022/11/12 02:41:55;;;;;;;13.93;7.50;;;;;;;4.60;88.20;102664.19;7399430;19;20035;-67
2022/11/12 02:44:24;;;;;;;10.50;8.43;;;;;;;4.58;88.32;102671.03;7397159;19;20411;-67
2022/11/12 02:46:53;;;;;;;14.10;8.68;;;;;;;4.56;88.28;102676.19;7398835;19;20544;-67
2022/11/12 02:49:21;;;;;;;12.82;8.50;;;;;;;4.55;88.46;102674.41;7396973;19;20027;-68
2022/11/12 02:51:49;;;;;;;14.05;9.05;;;;;;;4.52;88.36;102678.63;7398665;19;20485;-67
2022/11/12 02:54:20;;;;;;;17.33;9.48;;;;;;;4.49;88.34;102674.19;7397395;19;20026;-68
2022/11/12 02:56:49;;;;;;;12.55;8.85;;;;;;;4.47;88.60;102680.19;7399397;19;20022;-68
2022/11/12 02:59:17;;;;;;;15.45;8.95;;;;;;;4.44;88.42;102677.50;7396213;19;20480;-67
2022/11/12 03:01:46;;;;;;;15.10;9.30;;;;;;;4.43;88.64;102683.50;7396648;19;20019;-67
2022/11/12 03:04:14;;;;;;;13.05;8.63;;;;;;;4.40;88.70;102679.97;7396937;19;20018;-67
2022/11/12 03:06:43;;;;;;;15.85;8.65;;;;;;;4.38;88.60;102691.13;7398623;19;20019;-67
2022/11/12 03:09:12;;;;;;;13.95;8.93;;;;;;;4.35;88.57;102686.72;7398554;19;20082;-67
2022/11/12 03:11:44;;;;;;;13.95;9.45;;;;;;;4.34;88.83;102689.25;7396266;19;20023;-67
2022/11/12 03:14:12;;;;;;;16.10;9.02;;;;;;;4.32;88.60;102698.72;7396664;19;20077;-67
2022/11/12 03:16:40;;;;;;;14.30;8.98;;;;;;;4.30;88.76;102695.19;7399431;19;20022;-67
2022/11/12 03:19:09;;;;;;;15.00;9.05;;;;;;;4.27;88.90;102698.53;7395776;19;20018;-67
2022/11/12 03:21:37;;;;;;;14.15;9.15;;;;;;;4.24;88.89;102694.13;7395718;19;20019;-68
2022/11/12 03:24:07;;;;;;;16.23;9.30;;;;;;;4.22;88.81;102703.59;7395522;19;20546;-67
2022/11/12 03:26:35;;;;;;;16.80;10.43;;;;;;;4.21;88.80;102708.75;7395845;19;20090;-67
2022/11/12 03:29:06;;;;;;;12.90;9.88;;;;;;;4.17;89.03;102699.03;7395925;19;20019;-67
2022/11/12 03:31:35;;;;;;;14.70;10.10;;;;;;;4.16;89.15;102699.91;7397388;19;20509;-67
2022/11/12 03:34:03;;;;;;;14.73;11.00;;;;;;;4.14;89.13;102701.53;7395585;19;20022;-66
2022/11/12 03:36:32;;;;;;;14.90;10.35;;;;;;;4.10;89.13;102703.13;7394754;19;20019;-67
2022/11/12 03:39:00;;;;;;;16.77;11.88;;;;;;;4.11;89.33;102702.31;7396169;19;20014;-67
2022/11/12 03:41:29;;;;;;;19.35;12.27;;;;;;;4.10;89.44;102704.88;7397292;19;20039;-67
2022/11/12 03:43:57;;;;;;;18.85;12.50;;;;;;;4.09;89.44;102706.56;7396589;19;20022;-67
2022/11/12 03:46:28;;;;;;;18.10;11.32;;;;;;;4.07;89.69;102701.31;7397314;19;20019;-67
2022/11/12 03:48:58;;;;;;;13.43;10.73;;;;;;;4.07;89.65;102703.03;7397627;19;20014;-67
2022/11/12 03:51:26;;;;;;;17.48;10.85;;;;;;;4.03;89.76;102694.25;7396730;19;20021;-67
2022/11/12 03:53:55;;;;;;;17.42;10.82;;;;;;;4.04;89.84;102697.72;7395620;19;20018;-68
2022/11/12 03:56:23;;;;;;;16.70;10.50;;;;;;;4.04;89.63;102701.22;7396733;19;20035;-67
2022/11/12 03:58:51;;;;;;;16.95;10.60;;;;;;;4.01;89.83;102688.09;7396572;19;20035;-67
2022/11/12 04:01:20;;;;;;;15.65;11.38;;;;;;;4.00;89.62;102685.44;7396136;19;20035;-68
2022/11/12 04:03:51;;;;;;;14.65;9.95;;;;;;;3.97;89.84;102682.72;7394481;19;20015;-67
2022/11/12 04:09:00;;;;;;;15.32;11.20;;;;;;;3.95;89.98;102694.78;7396780;19;20516;-67
2022/11/12 04:11:29;;;;;;;17.85;11.68;;;;;;;3.91;89.83;102689.47;7396119;19;20031;-67
2022/11/12 04:13:54;;;;;;;14.77;10.95;;;;;;;3.89;90.08;102687.63;7394805;19;20023;-67
2022/11/12 04:21:54;;;;;;;24.00;12.35;;;;;;;3.83;90.17;102690.91;7396298;19;20052;-67
2022/11/12 04:27:07;;;;;;;18.23;12.45;;;;;;;3.81;90.25;102691.69;7396179;19;20011;-67
2022/11/12 04:32:16;;;;;;;19.83;12.25;;;;;;;3.78;90.32;102689.84;7396031;19;20044;-67
2022/11/12 04:34:47;;;;;;;18.63;12.18;;;;;;;3.78;90.31;102701.94;7394275;19;20423;-67
2022/11/12 04:37:16;;;;;;;18.25;12.98;;;;;;;3.75;90.49;102693.22;7396057;19;20022;-67
2022/11/12 04:39:44;;;;;;;17.73;12.90;;;;;;;3.74;90.44;102694.03;7393963;19;20022;-67
2022/11/12 04:45:04;;;;;;;18.40;13.05;;;;;;;3.72;90.56;102690.50;7394399;19;20019;-67
2022/11/12 04:47:35;;;;;;;18.27;12.20;;;;;;;3.70;90.70;102684.38;7395163;19;20516;-67
2022/11/12 04:50:09;;;;;;;18.45;12.20;;;;;;;3.71;90.65;102691.31;7395419;19;20014;-67
2022/11/12 04:52:38;;;;;;;26.77;16.40;;;;;;;3.70;90.66;102688.66;7394022;19;20015;-67
2022/11/12 04:55:07;;;;;;;19.83;14.35;;;;;;;3.68;90.65;102695.53;7393412;19;20116;-67
2022/11/12 04:57:36;;;;;;;22.02;14.07;;;;;;;3.67;90.52;102688.56;7395107;19;20086;-66
2022/11/12 05:00:05;;;;;;;23.38;14.45;;;;;;;3.65;90.77;102690.22;7394943;19;20031;-67
2022/11/12 05:02:34;;;;;;;25.55;18.25;;;;;;;3.63;90.69;102690.16;7392829;19;20477;-66
2022/11/12 05:05:02;;;;;;;34.13;23.27;;;;;;;3.62;90.84;102685.78;7393130;19;20074;-67
2022/11/12 05:07:33;;;;;;;25.63;18.73;;;;;;;3.60;90.61;102690.00;7394292;19;20079;-67
2022/11/12 05:10:02;;;;;;;19.52;15.07;;;;;;;3.59;90.69;102683.09;7395258;19;20086;-67
2022/11/12 05:12:30;;;;;;;19.20;14.23;;;;;;;3.56;90.84;102680.34;7394808;19;20078;-68
2022/11/12 05:14:59;;;;;;;166.60;88.55;;;;;;;3.54;90.91;102689.81;7392238;19;20021;-67
2022/11/12 05:17:27;;;;;;;109.45;60.78;;;;;;;3.53;90.99;102685.44;7393972;19;20070;-66
2022/11/12 05:19:55;;;;;;;34.78;23.83;;;;;;;3.51;90.98;102687.94;7394625;19;20026;-67
2022/11/12 05:22:24;;;;;;;29.38;22.40;;;;;;;3.50;90.97;102694.00;7394140;19;20078;-67
2022/11/12 05:24:55;;;;;;;24.83;20.60;;;;;;;3.47;90.97;102691.25;7391846;19;20446;-67
2022/11/12 05:27:23;;;;;;;22.08;18.67;;;;;;;3.45;90.93;102702.41;7394670;19;20077;-67
2022/11/12 05:29:52;;;;;;;23.80;18.83;;;;;;;3.43;90.85;102697.16;7393846;19;20086;-67
2022/11/12 05:32:20;;;;;;;22.70;19.13;;;;;;;3.39;90.99;102693.56;7391804;19;20365;-67
2022/11/12 05:34:48;;;;;;;22.08;16.98;;;;;;;3.37;90.96;102700.38;7392212;19;20097;-67
2022/11/12 05:37:17;;;;;;;22.45;15.55;;;;;;;3.34;90.67;102697.69;7391552;19;20090;-67
2022/11/12 05:39:45;;;;;;;20.00;15.35;;;;;;;3.31;90.70;102704.47;7393618;19;20017;-66
2022/11/12 05:42:16;;;;;;;19.08;15.05;;;;;;;3.28;90.69;102706.94;7394006;19;20090;-67
2022/11/12 05:44:45;;;;;;;21.15;15.10;;;;;;;3.24;90.94;102712.00;7391939;19;20029;-67
2022/11/12 05:47:13;;;;;;;20.90;16.90;;;;;;;3.23;90.76;102717.13;7391870;19;20018;-67
2022/11/12 05:49:49;;;;;;;20.85;16.30;;;;;;;3.20;90.62;102719.63;7393509;19;20070;-67
2022/11/12 05:52:17;;;;;;;25.45;15.85;;;;;;;3.16;90.76;102723.78;7393517;19;20604;-67
2022/11/12 05:54:45;;;;;;;20.55;14.35;;;;;;;3.14;90.64;102719.38;7391313;19;20027;-66
2022/11/12 05:57:16;;;;;;;20.67;15.05;;;;;;;3.10;90.58;102726.13;7393073;19;20085;-67
2022/11/12 05:59:45;;;;;;;22.63;15.45;;;;;;;3.09;90.74;102732.13;7393773;19;20021;-67
2022/11/12 06:02:13;;;;;;;19.92;14.52;;;;;;;3.05;90.77;102731.13;7400383;19;20082;-66
2022/11/12 06:04:42;;;;;;;21.73;15.98;;;;;;;3.03;90.88;102735.38;7397613;19;20082;-66
2022/11/12 06:07:10;;;;;;;19.13;15.48;;;;;;;3.02;90.81;102738.78;7397545;19;20015;-66
2022/11/12 06:09:45;;;;;;;22.33;16.10;;;;;;;3.00;90.68;102734.34;7400388;19;20082;-66
2022/11/12 06:12:16;;;;;;;22.17;16.50;;;;;;;2.98;90.65;102741.16;7400031;19;20086;-67
2022/11/12 06:14:45;;;;;;;20.55;15.02;;;;;;;2.95;90.82;102739.34;7397790;19;20066;-67
2022/11/12 06:17:13;;;;;;;20.17;15.73;;;;;;;2.92;90.85;102744.41;7397420;19;20091;-68
2022/11/12 06:19:41;;;;;;;19.10;13.95;;;;;;;2.90;90.76;102746.91;7400194;19;20081;-67
2022/11/12 06:22:10;;;;;;;16.63;12.52;;;;;;;2.88;90.63;102745.97;7400615;19;20090;-69
2022/11/12 06:24:38;;;;;;;16.52;12.90;;;;;;;2.87;90.74;102749.38;7397891;19;20074;-67
2022/11/12 06:27:07;;;;;;;43.88;25.77;;;;;;;2.85;90.87;102750.16;7400058;19;20074;-67
2022/11/12 06:29:38;;;;;;;22.35;14.35;;;;;;;2.84;90.62;102738.88;7399664;19;20013;-67
2022/11/12 06:32:06;;;;;;;18.10;12.85;;;;;;;2.83;90.65;102749.19;7400069;19;20019;-67
2022/11/12 06:34:35;;;;;;;19.45;14.02;;;;;;;2.80;90.64;102752.53;7397136;19;20556;-67
2022/11/12 06:37:03;;;;;;;21.67;14.93;;;;;;;2.79;90.74;102752.47;7397303;19;20365;-67
2022/11/12 06:39:32;;;;;;;18.52;14.55;;;;;;;2.75;90.81;102754.03;7399485;19;20081;-67
2022/11/12 06:42:00;;;;;;;22.33;14.73;;;;;;;2.75;90.99;102754.91;7397047;19;20027;-68
2022/11/12 06:44:29;;;;;;;47.17;28.85;;;;;;;2.73;91.02;102764.34;7397199;19;20484;-71
2022/11/12 06:47:00;;;;;;;45.70;29.88;;;;;;;2.73;90.90;102763.44;7398826;19;20086;-68
2022/11/12 06:49:28;;;;;;;34.92;21.33;;;;;;;2.71;90.80;102765.13;7399619;19;20082;-67
2022/11/12 06:51:57;;;;;;;22.15;16.77;;;;;;;2.71;91.04;102773.75;7396806;19;20090;-68
2022/11/12 06:54:25;;;;;;;28.88;20.40;;;;;;;2.69;90.99;102780.59;7396710;19;20091;-68
2022/11/12 06:56:54;;;;;;;26.80;17.77;;;;;;;2.69;90.90;102778.00;7397043;19;20488;-68
2022/11/12 06:59:22;;;;;;;28.00;18.75;;;;;;;2.69;90.87;102785.78;7399033;19;20082;-67
2022/11/12 07:01:51;;;;;;;21.77;15.48;;;;;;;2.68;91.10;102772.75;7398399;19;20549;-67
2022/11/12 07:04:22;;;;;;;24.67;16.05;;;;;;;2.69;91.10;102783.19;7396823;19;20018;-67
2022/11/12 07:06:50;;;;;;;22.35;16.40;;;;;;;2.70;91.24;102786.66;7396462;19;20410;-68
2022/11/12 07:09:19;;;;;;;22.25;13.80;;;;;;;2.70;91.32;102784.94;7398517;19;20023;-67
2022/11/12 07:11:47;;;;;;;20.85;14.93;;;;;;;2.71;91.22;102789.31;7396131;19;20023;-67
2022/11/12 07:14:16;;;;;;;19.48;14.32;;;;;;;2.73;91.60;102787.69;7395475;19;20019;-68
2022/11/12 07:16:44;;;;;;;27.77;15.63;;;;;;;2.77;91.64;102793.91;7397127;19;20018;-67
2022/11/12 07:19:12;;;;;;;20.67;14.50;;;;;;;2.79;91.44;102796.53;7397547;19;20081;-68
2022/11/12 07:21:43;;;;;;;24.23;15.18;;;;;;;2.80;91.65;102794.00;7398034;19;20035;-67
2022/11/12 07:24:12;;;;;;;23.30;15.13;;;;;;;2.84;91.51;102792.44;7396098;19;20014;-67
2022/11/12 07:26:41;;;;;;;22.90;16.63;;;;;;;2.86;91.97;102788.22;7397126;19;20014;-67
2022/11/12 07:29:09;;;;;;;25.35;16.48;;;;;;;2.88;91.85;102796.94;7397321;19;20026;-65
2022/11/12 07:31:38;;;;;;;21.67;14.95;;;;;;;2.90;92.06;102793.59;7397127;19;20023;-66
2022/11/12 07:34:06;;;;;;;22.65;15.38;;;;;;;2.95;92.24;102786.00;7396104;19;20015;-67
2022/11/12 07:36:35;;;;;;;25.10;16.60;;;;;;;2.98;92.03;102798.22;7396263;19;20078;-67
2022/11/12 07:39:05;;;;;;;25.00;15.43;;;;;;;3.03;92.10;102792.44;7396968;19;20522;-67
2022/11/12 07:41:34;;;;;;;24.67;16.30;;;;;;;3.05;92.26;102800.25;7397419;19;20022;-68
2022/11/12 07:44:03;;;;;;;23.38;16.02;;;;;;;3.08;92.20;102801.28;7395739;19;20025;-67
2022/11/12 07:46:31;;;;;;;27.50;17.75;;;;;;;3.12;92.54;102804.00;7397218;19;20014;-68
2022/11/12 07:48:59;;;;;;;22.17;16.25;;;;;;;3.12;92.88;102797.09;7394876;19;20070;-68
2022/11/12 07:51:30;;;;;;;24.10;16.70;;;;;;;3.18;92.64;102804.25;7396577;19;20548;-68
2022/11/12 07:53:59;;;;;;;24.77;16.63;;;;;;;3.21;92.79;102799.19;7396210;19;20010;-67
2022/11/12 07:56:31;;;;;;;24.10;17.63;;;;;;;3.29;93.02;102799.53;7395785;19;20019;-68
2022/11/12 07:58:59;;;;;;;26.27;17.42;;;;;;;3.34;93.13;102808.38;7396512;19;20017;-67
2022/11/12 08:01:32;;;;;;;28.50;18.42;;;;;;;3.39;93.41;102812.06;7396372;19;20509;-67
2022/11/12 08:04:01;;;;;;;27.90;18.50;;;;;;;3.44;93.71;102805.34;7394890;19;20066;-66
2022/11/12 08:06:31;;;;;;;26.25;19.45;;;;;;;3.51;94.35;102801.28;7394655;19;20154;-66
2022/11/12 08:09:02;;;;;;;28.13;19.50;;;;;;;3.57;93.68;102799.81;7394946;19;20090;-69
2022/11/12 08:11:34;;;;;;;26.27;19.05;;;;;;;3.65;94.33;102796.63;7394471;19;20014;-68
2022/11/12 08:14:03;;;;;;;25.30;18.15;;;;;;;3.71;94.56;102802.06;7395559;19;20015;-68
2022/11/12 08:16:31;;;;;;;24.70;18.55;;;;;;;3.79;94.58;102794.59;7394127;19;20018;-67
2022/11/12 08:19:00;;;;;;;23.77;18.38;;;;;;;3.85;94.52;102792.22;7394068;19;20018;-67
2022/11/12 08:21:28;;;;;;;26.40;18.83;;;;;;;3.93;94.36;102796.03;7393931;19;20018;-67
2022/11/12 08:23:57;;;;;;;27.70;19.83;;;;;;;4.01;94.39;102792.00;7393985;19;20078;-68
2022/11/12 08:26:25;;;;;;;26.70;18.92;;;;;;;4.10;94.56;102795.78;7395414;19;20069;-67
2022/11/12 08:28:56;;;;;;;25.95;19.83;;;;;;;4.15;94.48;102786.44;7395886;19;20019;-67
2022/11/12 08:31:25;;;;;;;23.65;18.23;;;;;;;4.25;94.90;102798.97;7395876;19;20433;-68
2022/11/12 08:33:54;;;;;;;27.30;17.38;;;;;;;4.33;94.81;102797.50;7394694;19;20022;-68
2022/11/12 08:36:22;;;;;;;21.25;16.38;;;;;;;4.42;94.77;102801.28;7393234;19;20081;-68
2022/11/12 08:38:53;;;;;;;22.10;16.30;;;;;;;4.48;94.26;102802.41;7393303;19;20495;-68
2022/11/12 08:41:22;;;;;;;23.30;15.88;;;;;;;4.57;94.19;102809.66;7395217;19;20090;-67
2022/11/12 08:43:50;;;;;;;21.33;16.00;;;;;;;4.65;94.12;102804.72;7394336;19;20026;-67
2022/11/12 08:46:21;;;;;;;23.30;16.88;;;;;;;4.72;93.96;102796.31;7395292;19;20442;-67
2022/11/12 08:48:50;;;;;;;19.15;14.73;;;;;;;4.79;93.74;102785.31;7393177;19;20078;-68
2022/11/12 08:51:18;;;;;;;21.20;17.08;;;;;;;4.87;93.56;102791.66;7393320;19;20022;-68
2022/11/12 08:53:47;;;;;;;21.52;15.88;;;;;;;4.95;93.65;102794.50;7393923;19;20018;-68
2022/11/12 08:56:15;;;;;;;21.13;15.63;;;;;;;5.03;93.60;102798.28;7394018;19;20082;-67
2022/11/12 08:58:43;;;;;;;16.35;14.65;;;;;;;5.11;93.68;102792.44;7394650;19;20090;-67
2022/11/12 09:01:12;;;;;;;19.30;15.05;;;;;;;5.20;93.76;102791.03;7393113;19;20015;-67
2022/11/12 09:03:43;;;;;;;22.20;15.23;;;;;;;5.29;93.53;102787.84;7393507;19;20082;-69
2022/11/12 09:06:11;;;;;;;23.55;16.25;;;;;;;5.38;93.24;102795.97;7394495;19;20361;-69
2022/11/12 09:08:40;;;;;;;28.30;16.30;;;;;;;5.47;92.98;102790.19;7394595;19;20014;-69
2022/11/12 09:11:08;;;;;;;22.15;15.50;;;;;;;5.55;93.20;102778.28;7394541;19;20036;-69
2022/11/12 09:13:37;;;;;;;25.90;15.82;;;;;;;5.64;93.24;102782.91;7392400;19;20072;-69
2022/11/12 09:16:13;;;;;;;27.00;16.13;;;;;;;5.75;92.89;102785.84;7392161;19;20078;-70
2022/11/12 09:18:44;;;;;;;20.30;14.85;;;;;;;5.87;92.84;102793.13;7394627;19;20512;-70
2022/11/12 09:21:14;;;;;;;18.83;13.93;;;;;;;5.98;92.96;102778.75;7392938;19;20014;-70
2022/11/12 09:23:42;;;;;;;20.05;14.35;;;;;;;6.09;92.57;102772.97;7393438;19;20101;-70
2022/11/12 09:26:10;;;;;;;22.25;15.90;;;;;;;6.20;92.39;102774.16;7393424;19;20074;-70
2022/11/12 09:28:39;;;;;;;22.10;15.18;;;;;;;6.32;92.30;102787.56;7393785;19;20111;-70
2022/11/12 09:31:08;;;;;;;20.95;15.00;;;;;;;6.45;92.16;102794.00;7392164;19;20074;-70
2022/11/12 09:33:37;;;;;;;17.65;13.45;;;;;;;6.57;91.94;102787.38;7391480;19;20035;-70
2022/11/12 09:36:09;;;;;;;14.95;12.05;;;;;;;6.70;91.65;102792.09;7396496;19;20400;-70
2022/11/12 09:38:37;;;;;;;17.30;12.38;;;;;;;6.81;91.52;102792.34;7401281;19;20082;-70
2022/11/12 09:41:24;;;;;;;11.93;10.13;;;;;;;6.97;91.21;102799.75;7397621;19;20082;-70
2022/11/12 09:43:54;;;;;;;17.90;11.95;;;;;;;7.09;90.83;102777.41;7399668;19;20018;-70
2022/11/12 09:46:31;;;;;;;14.90;10.40;;;;;;;7.24;90.31;102784.75;7401310;19;20015;-69
2022/11/12 09:49:06;;;;;;;11.27;9.30;;;;;;;7.37;90.26;102781.63;7401226;19;20074;-70
2022/11/12 09:51:40;;;;;;;14.57;10.30;;;;;;;7.49;89.65;102774.09;7398751;19;20081;-70
2022/11/12 09:54:20;;;;;;;13.02;10.07;;;;;;;7.64;89.03;102778.75;7399634;19;20085;-70
2022/11/12 09:56:49;;;;;;;13.07;9.35;;;;;;;7.79;88.54;102782.59;7398114;19;20082;-70
2022/11/12 09:59:18;;;;;;;11.85;7.97;;;;;;;7.92;88.04;102774.19;7400622;19;20022;-70
2022/11/12 10:01:57;;;;;;;10.13;6.93;;;;;;;8.05;87.23;102775.31;7400358;19;20078;-70
2022/11/12 10:04:54;;;;;;;9.13;4.97;;;;;;;8.19;85.73;102783.47;7397995;19;20022;-70
2022/11/12 10:07:40;;;;;;;6.45;5.25;;;;;;;8.34;85.16;102780.28;7397616;19;20541;-71
2022/11/12 10:10:14;;;;;;;9.13;6.55;;;;;;;8.49;84.57;102774.47;7399814;19;20014;-70
2022/11/12 10:13:21;;;;;;;7.28;5.93;;;;;;;8.62;83.82;102776.50;7399917;19;20014;-70
2022/11/12 10:19:17;;;;;;;14.35;6.95;;;;;;;8.89;82.92;102785.69;7400227;19;20085;-70
2022/11/12 10:21:53;;;;;;;11.02;6.90;;;;;;;9.00;82.65;102775.44;7399596;19;20019;-69
2022/11/12 10:24:25;;;;;;;11.30;8.13;;;;;;;9.12;82.12;102780.88;7397451;19;20086;-70
2022/11/12 10:26:54;;;;;;;10.52;7.40;;;;;;;9.26;81.51;102780.22;7400223;19;20033;-70
2022/11/12 10:29:31;;;;;;;13.18;7.88;;;;;;;9.37;81.07;102777.78;7399250;19;20015;-71
2022/11/12 10:32:02;;;;;;;12.20;7.60;;;;;;;9.47;80.80;102770.94;7399235;19;20074;-70
2022/11/12 10:34:34;;;;;;;11.30;7.32;;;;;;;9.57;80.30;102778.97;7396435;19;20484;-70
2022/11/12 10:37:06;;;;;;;10.30;7.13;;;;;;;9.68;79.82;102780.84;7398461;19;20019;-70
2022/11/12 10:39:42;;;;;;;8.95;6.38;;;;;;;9.78;79.30;102782.75;7399094;19;20033;-72
2022/11/12 10:42:13;;;;;;;8.90;6.72;;;;;;;9.89;79.08;102768.03;7399573;19;20034;-71
2022/11/12 10:44:43;;;;;;;9.77;6.05;;;;;;;9.98;78.62;102774.28;7397561;19;20086;-70
2022/11/12 10:47:23;;;;;;;9.23;6.65;;;;;;;10.09;77.98;102780.56;7398268;19;20018;-70
2022/11/12 10:50:07;;;;;;;14.88;7.18;;;;;;;10.21;77.51;102785.06;7399801;19;20019;-70
2022/11/12 10:52:36;;;;;;;9.07;6.25;;;;;;;10.31;77.22;102778.19;7399492;19;20015;-68
2022/11/12 10:55:16;;;;;;;9.20;5.63;;;;;;;10.40;76.57;102763.47;7396499;19;20461;-70
2022/11/12 10:57:45;;;;;;;7.00;6.10;;;;;;;10.49;76.34;102764.44;7396974;19;20023;-70
2022/11/12 11:00:19;;;;;;;5.95;5.07;;;;;;;10.57;75.79;102771.53;7398377;19;20540;-69
2022/11/12 11:02:51;;;;;;;8.52;5.50;;;;;;;10.66;75.31;102777.75;7399096;19;20023;-70
2022/11/12 11:05:35;;;;;;;8.05;4.82;;;;;;;10.73;74.22;102777.81;7396795;19;20090;-69
2022/11/12 11:08:04;;;;;;;7.88;4.90;;;;;;;10.81;74.47;102771.78;7396741;19;20035;-68
2022/11/12 11:10:36;;;;;;;8.48;5.68;;;;;;;10.89;74.15;102760.47;7398150;19;20022;-70
2022/11/12 11:13:28;;;;;;;8.43;5.03;;;;;;;10.98;73.62;102767.56;7396476;19;20086;-69
2022/11/12 11:16:02;;;;;;;7.57;4.50;;;;;;;11.03;73.12;102773.75;7396100;19;20404;-69
2022/11/12 11:18:32;;;;;;;6.88;4.72;;;;;;;11.13;72.73;102773.81;7396202;19;20022;-70
2022/11/12 11:21:10;;;;;;;7.60;4.47;;;;;;;11.20;72.46;102759.88;7398293;19;20018;-70
2022/11/12 11:23:45;;;;;;;7.35;4.50;;;;;;;11.28;72.29;102762.53;7396754;19;20099;-69
2022/11/12 11:26:34;;;;;;;5.68;4.13;;;;;;;11.37;71.75;102768.75;7397685;19;20446;-69
2022/11/12 11:29:20;;;;;;;11.85;5.82;;;;;;;11.44;71.27;102764.41;7397548;19;20541;-69
2022/11/12 11:31:56;;;;;;;8.43;4.57;;;;;;;11.51;71.14;102766.22;7398690;19;20074;-70
2022/11/12 11:34:39;;;;;;;7.57;5.10;;;;;;;11.57;70.87;102761.00;7396257;19;20070;-67
2022/11/12 11:37:21;;;;;;;11.35;5.18;;;;;;;11.66;70.57;102764.56;7395850;19;20014;-67
2022/11/12 11:39:59;;;;;;;7.88;5.78;;;;;;;11.71;70.08;102754.94;7397793;19;20075;-66
2022/11/12 11:42:52;;;;;;;9.68;5.40;;;;;;;11.79;69.87;102750.63;7396073;19;20083;-67
2022/11/12 11:45:28;;;;;;;7.75;6.55;;;;;;;11.87;69.84;102751.53;7395687;19;20086;-67
2022/11/12 11:48:06;;;;;;;8.75;6.15;;;;;;;11.93;69.42;102770.84;7397010;19;20090;-67
2022/11/12 11:50:37;;;;;;;9.93;6.35;;;;;;;11.98;69.18;102766.50;7395039;19;20034;-68
2022/11/12 11:53:18;;;;;;;9.88;6.30;;;;;;;12.02;68.96;102744.63;7396895;19;20014;-67
2022/11/12 11:55:54;;;;;;;8.23;5.55;;;;;;;12.06;68.53;102755.16;7397491;19;20018;-67
2022/11/12 11:58:50;;;;;;;11.85;6.18;;;;;;;12.09;67.59;102764.81;7394950;19;20095;-69